Time;durP1;ratioP1;P1;durP2;ratioP2;P2;SDS_P1;SDS_P2;PMS_P1;PMS_P2;Temp;Humidity;BMP_temperature;BMP_pressure;BME280_temperature;BME280_humidity;BME280_pressure;Samples;Min_cycle;Max_cycle;Signal;HPM_P1;HPM_P2
2022/01/03 00:00:40;;;;;;;6.85;3.72;;;;;;;8.96;72.90;99510.94;2089548;82;21852;-73
2022/01/03 00:03:42;;;;;;;7.35;4.35;;;;;;;8.96;72.83;99503.00;2093864;82;21119;-72
2022/01/03 00:06:44;;;;;;;8.55;5.20;;;;;;;8.96;72.84;99503.00;2095023;81;21037;-72
2022/01/03 00:09:46;;;;;;;8.45;4.55;;;;;;;8.96;72.85;99500.85;2089425;83;21111;-75
2022/01/03 00:12:49;;;;;;;8.93;5.10;;;;;;;8.94;72.90;99504.98;2085091;81;21691;-74
2022/01/03 00:15:55;;;;;;;8.95;5.33;;;;;;;8.89;72.90;99499.37;2094553;83;21714;-74
2022/01/03 00:18:56;;;;;;;10.43;4.72;;;;;;;8.83;72.96;99501.38;2083622;82;20987;-73
2022/01/03 00:22:02;;;;;;;6.70;4.72;;;;;;;8.71;72.87;99501.43;2088013;81;20992;-72
2022/01/03 00:25:10;;;;;;;10.80;5.45;;;;;;;8.57;72.98;99498.98;2092536;81;21143;-73
2022/01/03 00:28:21;;;;;;;8.85;5.37;;;;;;;8.49;73.15;99503.78;2104172;83;21059;-73
2022/01/03 00:31:31;;;;;;;8.70;4.72;;;;;;;8.43;73.24;99502.31;2101096;82;20986;-73
2022/01/03 00:34:38;;;;;;;10.23;5.47;;;;;;;8.39;73.41;99491.73;2101107;82;21032;-73
2022/01/03 00:37:44;;;;;;;11.43;6.05;;;;;;;8.39;73.45;99489.09;2103700;83;21074;-72
2022/01/03 00:40:46;;;;;;;12.18;5.67;;;;;;;8.35;73.36;99492.54;2099960;82;21038;-73
2022/01/03 00:43:51;;;;;;;10.85;5.17;;;;;;;8.32;73.43;99495.52;2100186;83;21575;-72
2022/01/03 00:46:53;;;;;;;11.20;5.67;;;;;;;8.26;73.43;99500.16;2098060;83;21007;-73
2022/01/03 00:49:57;;;;;;;14.10;5.58;;;;;;;8.17;73.54;99500.66;2099502;82;21806;-73
2022/01/03 00:53:00;;;;;;;13.80;5.47;;;;;;;8.11;73.67;99507.09;2103906;83;21323;-72
2022/01/03 00:56:10;;;;;;;13.68;5.75;;;;;;;8.04;73.79;99510.39;2103623;82;21154;-72
2022/01/03 00:59:25;;;;;;;10.60;5.75;;;;;;;8.01;73.86;99509.41;2100294;83;21052;-73
2022/01/03 01:02:30;;;;;;;8.40;4.83;;;;;;;7.97;73.98;99504.14;2103178;82;21270;-75
2022/01/03 01:05:33;;;;;;;10.55;5.55;;;;;;;7.99;74.06;99500.81;2100274;83;21837;-73
2022/01/03 01:08:37;;;;;;;10.80;6.10;;;;;;;7.98;74.13;99496.53;2103386;83;21821;-72
2022/01/03 01:11:44;;;;;;;15.93;7.08;;;;;;;7.98;74.16;99497.03;2098126;83;21642;-73
2022/01/03 01:14:51;;;;;;;13.95;7.22;;;;;;;7.98;74.20;99487.28;2104257;83;21379;-73
2022/01/03 01:17:55;;;;;;;9.58;6.08;;;;;;;7.95;74.29;99477.55;2101579;83;21028;-72
2022/01/03 01:20:57;;;;;;;11.10;6.70;;;;;;;7.92;74.34;99474.73;2103862;83;21077;-72
2022/01/03 01:23:59;;;;;;;8.98;5.70;;;;;;;7.90;74.37;99470.11;2097948;83;21778;-73
2022/01/03 01:30:26;;;;;;;8.70;5.30;;;;;;;7.89;74.49;99466.33;2097286;83;21893;-73
2022/01/03 01:33:33;;;;;;;12.80;6.37;;;;;;;7.91;74.53;99467.78;2093912;83;21052;-73
2022/01/03 01:36:37;;;;;;;13.65;6.80;;;;;;;7.93;74.58;99461.85;2093072;83;21049;-72
2022/01/03 01:39:41;;;;;;;10.68;6.05;;;;;;;7.97;74.61;99463.19;2096149;83;21037;-74
2022/01/03 01:42:46;;;;;;;10.23;5.65;;;;;;;7.99;74.62;99457.22;2096697;83;21086;-72
2022/01/03 01:45:51;;;;;;;9.85;5.83;;;;;;;8.01;74.65;99458.39;2093205;83;21634;-75
2022/01/03 01:48:58;;;;;;;7.92;4.97;;;;;;;8.02;74.59;99454.24;2097576;83;21004;-73
2022/01/03 01:52:03;;;;;;;13.05;5.05;;;;;;;8.04;74.57;99448.80;2097739;83;21871;-72
2022/01/03 01:55:12;;;;;;;9.23;4.78;;;;;;;8.04;74.51;99440.38;2100292;83;21083;-72
2022/01/03 01:58:37;;;;;;;8.95;4.62;;;;;;;8.05;74.48;99430.63;2094438;83;21666;-73
2022/01/03 02:02:00;;;;;;;9.50;5.37;;;;;;;8.08;74.37;99417.08;2094364;83;21063;-74
2022/01/03 02:05:18;;;;;;;15.93;6.42;;;;;;;8.09;74.29;99409.00;2096111;83;21614;-73
2022/01/03 02:08:39;;;;;;;9.83;5.62;;;;;;;8.11;74.20;99404.03;2096519;83;21571;-72
2022/01/03 02:11:56;;;;;;;9.78;4.83;;;;;;;8.09;73.96;99387.86;2096319;83;21047;-72
2022/01/03 02:15:01;;;;;;;10.23;5.50;;;;;;;8.05;74.00;99379.11;2089217;83;21149;-74
2022/01/03 02:18:04;;;;;;;8.78;5.55;;;;;;;7.99;74.01;99375.83;2092260;83;21039;-72
2022/01/03 02:21:06;;;;;;;9.83;5.62;;;;;;;7.92;73.97;99366.44;2089319;83;21838;-73
2022/01/03 02:24:09;;;;;;;8.63;4.97;;;;;;;7.84;73.97;99367.77;2099195;83;21086;-73
2022/01/03 02:27:12;;;;;;;11.05;5.12;;;;;;;7.79;74.08;99372.22;2138506;81;21504;-73
2022/01/03 02:30:22;;;;;;;12.30;5.53;;;;;;;7.72;74.11;99363.33;2150066;81;21005;-74
2022/01/03 02:33:24;;;;;;;9.58;5.62;;;;;;;7.70;74.23;99365.80;2148881;81;20985;-73
2022/01/03 02:36:29;;;;;;;11.83;6.12;;;;;;;7.64;74.28;99360.19;2147340;81;20977;-72
2022/01/03 02:39:32;;;;;;;8.65;5.00;;;;;;;7.59;74.38;99354.58;2149991;81;21164;-72
2022/01/03 02:42:34;;;;;;;8.43;5.70;;;;;;;7.54;74.53;99355.56;2126174;81;21024;-73
2022/01/03 02:45:36;;;;;;;10.90;5.75;;;;;;;7.49;74.65;99339.42;2144679;81;21531;-72
2022/01/03 02:48:38;;;;;;;6.97;4.45;;;;;;;7.43;74.73;99340.56;2151927;81;20986;-72
2022/01/03 02:51:45;;;;;;;8.38;4.17;;;;;;;7.38;74.94;99327.38;2152185;81;20996;-72
2022/01/03 02:54:49;;;;;;;6.72;4.45;;;;;;;7.35;75.02;99323.75;2150667;81;21100;-72
2022/01/03 02:57:55;;;;;;;9.23;4.70;;;;;;;7.34;75.12;99319.95;2148287;81;21085;-73
2022/01/03 03:00:59;;;;;;;9.20;4.50;;;;;;;7.32;75.41;99311.36;2149739;81;21390;-72
2022/01/03 03:04:05;;;;;;;7.50;4.60;;;;;;;7.30;75.46;99314.69;2149645;81;21063;-73
2022/01/03 03:07:21;;;;;;;8.35;4.97;;;;;;;7.29;75.57;99301.14;2151528;81;20977;-72
2022/01/03 03:10:26;;;;;;;8.00;5.03;;;;;;;7.29;75.68;99310.38;2129548;81;21081;-73
2022/01/03 03:13:29;;;;;;;6.97;4.17;;;;;;;7.30;75.72;99321.28;2154710;81;21057;-75
2022/01/03 03:16:32;;;;;;;7.60;4.58;;;;;;;7.30;75.87;99322.60;2125314;81;21049;-72
2022/01/03 03:19:54;;;;;;;8.13;4.55;;;;;;;7.34;75.94;99319.45;2132122;81;21004;-73
2022/01/03 03:22:59;;;;;;;6.85;4.20;;;;;;;7.39;76.00;99316.33;2150313;81;20962;-72
2022/01/03 03:26:04;;;;;;;8.00;4.75;;;;;;;7.45;76.01;99315.66;2154103;81;21878;-72
2022/01/03 03:29:07;;;;;;;8.33;5.10;;;;;;;7.47;76.11;99325.56;2118058;81;21101;-73
2022/01/03 03:32:11;;;;;;;9.65;4.65;;;;;;;7.49;76.29;99323.59;2153200;81;21332;-73
2022/01/03 03:35:14;;;;;;;8.08;4.42;;;;;;;7.51;76.60;99326.86;2146442;81;21053;-73
2022/01/03 03:38:17;;;;;;;9.03;4.33;;;;;;;7.49;76.77;99313.03;2150405;81;21060;-73
2022/01/03 03:41:19;;;;;;;8.85;4.37;;;;;;;7.47;77.20;99316.32;2148518;81;21002;-72
2022/01/03 03:44:22;;;;;;;6.70;4.30;;;;;;;7.44;77.62;99306.09;2150273;81;21073;-73
2022/01/03 03:47:24;;;;;;;7.83;4.87;;;;;;;7.42;77.80;99304.11;2148231;81;21020;-73
2022/01/03 03:50:26;;;;;;;7.67;4.97;;;;;;;7.36;78.40;99304.28;2147033;80;21104;-73
2022/01/03 03:53:28;;;;;;;11.63;4.92;;;;;;;7.33;78.37;99306.44;2154785;81;20982;-73
2022/01/03 03:56:31;;;;;;;8.75;5.20;;;;;;;7.29;78.62;99301.98;2151962;81;21585;-72
2022/01/03 03:59:33;;;;;;;12.18;5.35;;;;;;;7.25;78.84;99305.93;2149870;80;21092;-73
2022/01/03 04:02:36;;;;;;;11.88;6.05;;;;;;;7.23;79.17;99298.66;2148098;81;20971;-73
2022/01/03 04:05:38;;;;;;;9.33;5.40;;;;;;;7.24;79.48;99294.23;2147128;81;21604;-72
2022/01/03 04:08:40;;;;;;;9.58;5.70;;;;;;;7.23;79.60;99290.75;2147751;81;20968;-73
2022/01/03 04:11:42;;;;;;;8.10;5.12;;;;;;;7.27;79.75;99293.91;2145818;80;21874;-72
2022/01/03 04:14:44;;;;;;;10.15;4.97;;;;;;;7.28;79.92;99281.03;2147456;81;21846;-72
2022/01/03 04:17:46;;;;;;;12.15;5.47;;;;;;;7.29;80.04;99273.43;2151294;81;21564;-73
2022/01/03 04:20:49;;;;;;;9.40;6.10;;;;;;;7.30;80.19;99272.46;2148725;81;21050;-75
2022/01/03 04:23:51;;;;;;;8.73;5.55;;;;;;;7.30;80.28;99257.45;2148325;80;21033;-72
2022/01/03 04:26:53;;;;;;;9.80;5.47;;;;;;;7.33;80.30;99252.33;2147609;81;20990;-72
2022/01/03 04:29:55;;;;;;;14.93;7.85;;;;;;;7.35;80.37;99237.16;2149183;81;21021;-73
2022/01/03 04:32:58;;;;;;;16.48;7.40;;;;;;;7.38;80.51;99228.91;2153481;81;21009;-74
2022/01/03 04:36:00;;;;;;;9.20;5.60;;;;;;;7.42;80.55;99227.56;2153816;81;21025;-75
2022/01/03 04:39:05;;;;;;;11.10;5.75;;;;;;;7.47;80.62;99217.34;2149273;81;21640;-72
2022/01/03 04:42:07;;;;;;;14.10;6.70;;;;;;;7.46;80.54;99210.42;2156991;80;21099;-73
2022/01/03 04:45:11;;;;;;;12.65;6.15;;;;;;;7.44;80.63;99214.22;2154378;81;21044;-72
2022/01/03 04:48:15;;;;;;;10.50;5.47;;;;;;;7.38;80.68;99219.17;2153998;81;21096;-74
2022/01/03 04:51:19;;;;;;;8.15;5.00;;;;;;;7.37;80.87;99210.09;2151532;81;21143;-74
2022/01/03 04:54:21;;;;;;;9.48;4.95;;;;;;;7.32;81.02;99201.84;2152027;81;21064;-73
2022/01/03 04:57:23;;;;;;;8.43;4.67;;;;;;;7.27;81.11;99199.73;2149210;80;20975;-73
2022/01/03 05:00:27;;;;;;;10.58;4.45;;;;;;;7.26;81.19;99188.83;2146380;81;20978;-73
2022/01/03 05:03:31;;;;;;;6.65;3.85;;;;;;;7.26;81.40;99185.37;2148851;81;21038;-72
2022/01/03 05:06:33;;;;;;;6.45;3.55;;;;;;;7.29;81.51;99178.44;2129608;81;20972;-74
2022/01/03 05:09:36;;;;;;;5.67;3.35;;;;;;;7.34;81.47;99178.26;2149993;81;21035;-73
2022/01/03 05:12:42;;;;;;;3.33;2.77;;;;;;;7.40;81.46;99195.23;2150546;81;21069;-72
2022/01/03 05:15:43;;;;;;;5.42;2.87;;;;;;;7.47;81.61;99201.50;2149629;81;21004;-75
2022/01/03 05:18:45;;;;;;;6.20;2.70;;;;;;;7.53;81.52;99205.28;2151572;81;21012;-72
2022/01/03 05:21:48;;;;;;;3.87;2.27;;;;;;;7.58;81.39;99208.23;2149458;81;21042;-72
2022/01/03 05:24:49;;;;;;;4.17;2.20;;;;;;;7.72;81.04;99204.89;2152249;81;20978;-73
2022/01/03 05:27:53;;;;;;;3.27;1.92;;;;;;;7.81;80.93;99201.72;2143122;81;21083;-72
2022/01/03 05:30:55;;;;;;;2.33;1.52;;;;;;;7.87;80.71;99206.31;2139357;81;21622;-72
2022/01/03 05:33:57;;;;;;;3.10;1.45;;;;;;;7.95;80.18;99208.92;2135539;81;20972;-74
2022/01/03 05:37:01;;;;;;;2.50;1.37;;;;;;;8.04;80.18;99223.73;2138969;81;21059;-73
2022/01/03 05:40:09;;;;;;;3.20;1.42;;;;;;;8.08;79.96;99223.73;2138284;81;21091;-72
2022/01/03 05:43:11;;;;;;;1.55;1.00;;;;;;;8.11;79.86;99212.47;2144056;80;21032;-73
2022/01/03 05:46:13;;;;;;;2.47;1.10;;;;;;;8.17;79.27;99223.19;2142916;80;21594;-73
2022/01/03 05:49:17;;;;;;;1.47;1.10;;;;;;;8.27;79.24;99226.42;2114941;81;21039;-74
2022/01/03 05:52:19;;;;;;;1.80;1.42;;;;;;;8.28;78.81;99217.52;2146274;80;21048;-73
2022/01/03 05:55:21;;;;;;;1.22;1.00;;;;;;;8.35;78.56;99226.06;2139927;80;21402;-75
2022/01/03 05:58:23;;;;;;;1.90;1.15;;;;;;;8.36;78.40;99235.12;2142662;80;21434;-77
2022/01/03 06:01:27;;;;;;;0.98;0.78;;;;;;;8.37;78.39;99223.57;2142713;80;21031;-74
2022/01/03 06:05:05;;;;;;;1.75;0.90;;;;;;;8.41;78.03;99237.29;2136794;80;21004;-73
2022/01/03 06:07:42;;;;;;;1.62;1.10;;;;;;;8.39;78.06;99226.91;2129898;80;21001;-72
2022/01/03 06:10:44;;;;;;;3.05;1.17;;;;;;;8.40;77.91;99235.15;2139742;81;21337;-73
2022/01/03 06:13:54;;;;;;;0.85;0.70;;;;;;;8.41;77.65;99232.81;2140076;80;21017;-73
2022/01/03 06:16:56;;;;;;;1.72;0.80;;;;;;;8.41;77.57;99236.78;2136325;80;21094;-74
2022/01/03 06:20:01;;;;;;;1.37;0.98;;;;;;;8.40;77.34;99237.80;2137455;81;21060;-75
2022/01/03 06:23:06;;;;;;;1.80;0.75;;;;;;;8.41;77.30;99239.43;2138880;81;21040;-72
2022/01/03 06:26:08;;;;;;;3.95;1.10;;;;;;;8.38;77.36;99249.00;2115251;81;20993;-73
2022/01/03 06:29:14;;;;;;;3.50;0.80;;;;;;;8.37;77.34;99250.01;2149983;81;20990;-74
2022/01/03 06:32:21;;;;;;;0.85;0.85;;;;;;;8.37;77.07;99247.87;2128773;80;21014;-72
2022/01/03 06:35:23;;;;;;;2.45;0.80;;;;;;;8.39;77.05;99246.73;2147249;81;21851;-71
2022/01/03 06:38:28;;;;;;;1.62;0.90;;;;;;;8.39;76.64;99237.48;2150757;81;21520;-73
2022/01/03 06:41:31;;;;;;;1.55;0.98;;;;;;;8.42;76.88;99254.31;2147663;81;21069;-72
2022/01/03 06:44:35;;;;;;;2.00;1.10;;;;;;;8.40;76.82;99256.80;2151178;81;21827;-72
2022/01/03 06:47:38;;;;;;;2.77;1.75;;;;;;;8.39;76.69;99255.14;2146055;81;21009;-74
2022/01/03 06:50:40;;;;;;;2.05;1.10;;;;;;;8.39;76.36;99265.70;2148289;80;21796;-72
2022/01/03 06:53:43;;;;;;;1.95;0.90;;;;;;;8.40;76.61;99262.91;2147745;81;21503;-72
2022/01/03 06:56:48;;;;;;;4.03;0.98;;;;;;;8.43;75.95;99272.31;2151503;81;21504;-74
2022/01/03 06:59:52;;;;;;;2.47;1.15;;;;;;;8.47;76.11;99274.41;2150746;80;21096;-70
2022/01/03 07:02:58;;;;;;;3.67;0.80;;;;;;;8.45;75.82;99267.18;2146195;80;21084;-71
2022/01/03 07:06:00;;;;;;;1.80;0.93;;;;;;;8.47;75.58;99282.85;2147616;80;20981;-71
2022/01/03 07:09:07;;;;;;;1.30;1.20;;;;;;;8.48;75.06;99278.73;2150791;81;21056;-71
2022/01/03 07:12:09;;;;;;;3.52;1.27;;;;;;;8.50;75.02;99284.67;2146318;81;21429;-71
2022/01/03 07:21:53;;;;;;;7.62;4.60;;;;;;;8.50;74.61;99294.40;2147983;81;20999;-71
2022/01/03 07:24:58;;;;;;;3.77;2.00;;;;;;;8.49;74.61;99290.94;2143160;81;21017;-78
2022/01/03 07:28:00;;;;;;;3.37;1.50;;;;;;;8.51;74.05;99296.89;2090361;82;21006;-71
2022/01/03 07:31:05;;;;;;;6.60;1.57;;;;;;;8.52;74.02;99299.02;2095843;83;21046;-71
2022/01/03 07:34:07;;;;;;;11.38;4.87;;;;;;;8.52;73.34;99305.64;2087305;83;21007;-72
2022/01/03 07:37:11;;;;;;;3.77;2.20;;;;;;;8.53;73.61;99305.48;2097204;83;21054;-71
2022/01/03 07:40:13;;;;;;;4.30;1.50;;;;;;;8.57;73.66;99309.91;2094833;83;21029;-72
2022/01/03 07:43:16;;;;;;;2.80;1.70;;;;;;;8.60;72.73;99310.06;2094355;83;20974;-71
2022/01/03 07:46:18;;;;;;;6.60;2.02;;;;;;;8.64;72.92;99323.25;2090235;83;21000;-72
2022/01/03 07:49:22;;;;;;;4.60;1.80;;;;;;;8.67;72.58;99325.55;2094698;83;21043;-72
2022/01/03 07:52:23;;;;;;;5.97;2.02;;;;;;;8.70;71.80;99314.62;2087676;83;21018;-71
2022/01/03 07:55:27;;;;;;;8.68;2.67;;;;;;;8.71;71.82;99311.81;2093236;83;21007;-76
2022/01/03 07:58:29;;;;;;;6.05;1.92;;;;;;;8.72;71.59;99322.70;2096765;83;21105;-71
2022/01/03 08:01:33;;;;;;;4.22;1.62;;;;;;;8.73;71.38;99319.09;2085527;83;21059;-74
2022/01/03 08:04:37;;;;;;;3.62;1.52;;;;;;;8.81;71.52;99332.73;2095665;83;20985;-72
2022/01/03 08:07:45;;;;;;;7.40;3.10;;;;;;;8.89;71.35;99323.43;2093504;83;21105;-71
2022/01/03 08:10:47;;;;;;;3.42;1.65;;;;;;;8.97;71.04;99308.83;2091655;83;21479;-70
2022/01/03 08:13:49;;;;;;;9.63;1.70;;;;;;;9.09;70.61;99318.50;2095595;82;21026;-75
2022/01/03 08:16:52;;;;;;;4.85;1.72;;;;;;;9.28;69.90;99320.36;2098568;82;22318;-71
2022/01/03 08:19:54;;;;;;;5.62;1.60;;;;;;;9.45;69.89;99323.19;2094985;83;21252;-72
2022/01/03 08:22:56;;;;;;;6.00;2.00;;;;;;;9.55;69.51;99325.09;2095249;83;20951;-71
2022/01/03 08:26:01;;;;;;;5.20;1.82;;;;;;;9.53;68.42;99309.88;2095260;83;21058;-78
2022/01/03 08:29:03;;;;;;;6.15;1.77;;;;;;;9.79;68.61;99313.94;2134930;81;21029;-70
2022/01/03 08:32:05;;;;;;;2.42;1.60;;;;;;;10.09;68.07;99316.11;2147066;81;21140;-72
2022/01/03 08:35:08;;;;;;;3.65;1.90;;;;;;;10.10;67.08;99307.95;2147771;81;21040;-77
2022/01/03 08:38:13;;;;;;;4.58;1.98;;;;;;;9.88;67.54;99309.71;2147577;81;21032;-72
2022/01/03 08:41:18;;;;;;;3.62;1.82;;;;;;;9.69;67.94;99327.45;2148567;81;21057;-73
2022/01/03 08:44:20;;;;;;;7.15;1.55;;;;;;;9.54;68.05;99324.75;2147987;81;21343;-71
2022/01/03 08:47:23;;;;;;;5.45;1.50;;;;;;;9.39;67.73;99314.13;2149111;81;20975;-72
2022/01/03 08:50:28;;;;;;;3.30;1.10;;;;;;;9.32;68.60;99328.25;2151224;81;21033;-72
2022/01/03 08:53:30;;;;;;;5.60;1.87;;;;;;;9.28;67.85;99319.03;2149670;81;21041;-72
2022/01/03 08:56:33;;;;;;;4.55;1.67;;;;;;;9.26;68.45;99332.44;2147329;81;20997;-72
2022/01/03 08:59:35;;;;;;;6.30;1.80;;;;;;;9.28;68.40;99325.15;2148087;80;21052;-73
2022/01/03 09:02:42;;;;;;;2.40;1.30;;;;;;;9.27;68.11;99321.38;2144618;81;21048;-71
2022/01/03 09:05:43;;;;;;;5.00;1.65;;;;;;;9.28;68.51;99329.63;2145519;81;21073;-71
2022/01/03 09:08:47;;;;;;;2.65;1.42;;;;;;;9.26;68.59;99331.11;2152392;82;21539;-71
2022/01/03 09:11:49;;;;;;;6.53;1.65;;;;;;;9.26;68.13;99334.27;2150852;81;20988;-74
2022/01/03 09:14:54;;;;;;;3.15;1.30;;;;;;;9.27;68.60;99344.69;2148117;81;21051;-71
2022/01/03 09:17:58;;;;;;;3.08;1.77;;;;;;;9.26;68.18;99331.11;2147994;81;21083;-71
2022/01/03 09:21:01;;;;;;;4.33;1.60;;;;;;;9.25;68.16;99319.39;2146122;81;21503;-71
2022/01/03 09:24:31;;;;;;;4.75;1.42;;;;;;;9.23;68.33;99325.36;2152984;81;21902;-71
2022/01/03 09:30:32;;;;;;;2.17;1.20;;;;;;;9.19;68.63;99334.98;2148159;80;21124;-71
2022/01/03 09:33:34;;;;;;;8.33;2.10;;;;;;;9.21;68.53;99341.43;2148587;81;20981;-71
2022/01/03 09:36:37;;;;;;;6.58;1.60;;;;;;;9.21;68.74;99350.70;2147263;81;21640;-71
2022/01/03 09:39:41;;;;;;;2.25;1.17;;;;;;;9.21;68.20;99341.43;2149295;80;21553;-72
2022/01/03 09:42:47;;;;;;;4.65;1.45;;;;;;;9.24;68.38;99335.78;2150161;81;20956;-71
2022/01/03 09:45:52;;;;;;;2.12;1.17;;;;;;;9.25;68.38;99332.13;2149320;80;21064;-72
2022/01/03 09:48:58;;;;;;;3.60;1.40;;;;;;;9.26;68.47;99339.55;2151392;80;21020;-72
2022/01/03 09:52:01;;;;;;;3.95;1.50;;;;;;;9.24;68.09;99331.81;2149455;81;21514;-71
2022/01/03 09:55:04;;;;;;;4.65;1.77;;;;;;;9.23;68.19;99350.50;2152509;81;21026;-71
2022/01/03 09:58:06;;;;;;;4.17;1.90;;;;;;;9.22;68.64;99349.69;2149736;80;21048;-73
2022/01/03 10:01:11;;;;;;;4.87;1.15;;;;;;;9.20;68.44;99350.35;2143743;81;21093;-71
2022/01/03 10:04:15;;;;;;;4.40;1.55;;;;;;;9.23;68.31;99342.56;2142468;80;21094;-71
2022/01/03 10:07:21;;;;;;;5.00;1.82;;;;;;;9.23;68.79;99349.18;2147184;81;20978;-73
2022/01/03 10:10:27;;;;;;;5.70;1.95;;;;;;;9.21;68.66;99354.67;2150412;81;21534;-73
2022/01/03 10:13:28;;;;;;;6.58;1.80;;;;;;;9.19;68.98;99361.95;2149262;80;21771;-72
2022/01/03 10:16:30;;;;;;;4.37;1.77;;;;;;;9.10;69.36;99353.24;2150068;80;21040;-71
2022/01/03 10:19:55;;;;;;;5.12;1.87;;;;;;;8.96;69.98;99355.33;2151490;81;21013;-72
2022/01/03 10:23:08;;;;;;;5.00;1.60;;;;;;;8.90;70.17;99356.84;2146754;81;21029;-72
2022/01/03 10:26:24;;;;;;;6.97;1.80;;;;;;;8.91;70.11;99359.80;2149054;80;21050;-73
2022/01/03 10:29:27;;;;;;;7.87;1.60;;;;;;;9.05;70.58;99366.68;2147624;81;21034;-71
2022/01/03 10:32:31;;;;;;;4.75;1.60;;;;;;;9.34;70.12;99362.82;2149617;80;21006;-74
2022/01/03 10:35:40;;;;;;;5.65;1.62;;;;;;;9.55;68.80;99371.95;2148906;81;21425;-71
2022/01/03 10:38:46;;;;;;;5.62;1.70;;;;;;;9.87;69.40;99364.20;2146973;81;20997;-71
2022/01/03 10:41:56;;;;;;;5.00;1.67;;;;;;;10.08;67.81;99375.44;2126585;81;21039;-71
2022/01/03 10:45:00;;;;;;;5.30;1.67;;;;;;;9.95;67.26;99371.25;2122961;81;21009;-72
2022/01/03 10:48:03;;;;;;;5.80;2.22;;;;;;;9.84;68.03;99391.87;2147076;81;21053;-75
2022/01/03 10:51:09;;;;;;;8.55;2.67;;;;;;;9.82;67.75;99379.30;2150280;81;21508;-74
2022/01/03 10:54:17;;;;;;;7.78;2.17;;;;;;;9.84;68.17;99398.50;2146461;81;20957;-73
2022/01/03 10:57:22;;;;;;;6.12;2.17;;;;;;;9.84;68.04;99382.60;2150213;81;21093;-73
2022/01/03 11:00:37;;;;;;;7.42;2.52;;;;;;;9.79;68.33;99394.23;2143744;81;21070;-72
2022/01/03 11:03:44;;;;;;;5.83;1.62;;;;;;;9.79;67.96;99395.56;2148728;81;21458;-76
2022/01/03 11:06:50;;;;;;;5.45;1.82;;;;;;;9.76;67.42;99401.72;2145283;80;21056;-73
2022/01/03 11:13:33;;;;;;;6.87;2.00;;;;;;;9.73;68.22;99392.30;2146713;81;21780;-73
2022/01/03 11:16:42;;;;;;;7.60;2.10;;;;;;;9.80;67.65;99389.78;2151219;81;21009;-73
2022/01/03 11:19:47;;;;;;;4.08;1.92;;;;;;;9.75;67.64;99398.26;2147981;80;20962;-74
2022/01/03 11:22:49;;;;;;;7.25;2.17;;;;;;;9.70;67.88;99391.34;2143324;81;20975;-75
2022/01/03 11:25:54;;;;;;;7.78;2.15;;;;;;;9.70;67.53;99393.99;2144461;80;21073;-72
2022/01/03 11:28:55;;;;;;;8.20;2.30;;;;;;;9.69;67.96;99397.66;2149352;81;21799;-74
2022/01/03 11:32:00;;;;;;;5.05;2.05;;;;;;;9.68;68.15;99400.47;2148208;81;21013;-73
2022/01/03 11:35:01;;;;;;;11.90;2.65;;;;;;;9.61;68.00;99396.39;2151800;81;21113;-74
2022/01/03 11:38:06;;;;;;;4.75;1.85;;;;;;;9.55;67.62;99394.46;2147967;81;21016;-73
2022/01/03 11:41:11;;;;;;;7.40;1.87;;;;;;;9.45;67.97;99390.71;2151101;81;21049;-73
2022/01/03 11:44:15;;;;;;;5.28;1.87;;;;;;;9.36;68.07;99388.63;2146203;80;21005;-79
2022/01/03 11:47:19;;;;;;;7.97;2.35;;;;;;;9.32;67.96;99389.14;2151238;81;21381;-73
2022/01/03 11:50:23;;;;;;;7.33;2.00;;;;;;;9.29;68.08;99395.64;2152808;81;21049;-72
2022/01/03 11:53:26;;;;;;;10.80;2.02;;;;;;;9.28;68.47;99391.83;2151633;81;21017;-73
2022/01/03 11:56:29;;;;;;;10.55;2.75;;;;;;;9.30;68.23;99389.34;2151637;81;21070;-73
2022/01/03 12:03:36;;;;;;;10.18;2.42;;;;;;;9.35;67.89;99386.99;2150752;81;21025;-73
2022/01/03 12:06:08;;;;;;;16.05;3.33;;;;;;;9.47;67.71;99379.95;2154255;81;20994;-73
2022/01/03 12:09:13;;;;;;;7.12;2.02;;;;;;;9.43;66.83;99384.76;2156459;81;21001;-81
2022/01/03 12:12:37;;;;;;;10.38;2.25;;;;;;;9.40;67.35;99387.77;2156522;81;21521;-72
2022/01/03 12:15:42;;;;;;;6.58;2.00;;;;;;;9.35;67.53;99399.41;2149997;81;21109;-72
2022/01/03 12:27:49;;;;;;;10.43;2.30;;;;;;;9.43;67.66;99401.50;2145040;81;21490;-73
2022/01/03 12:30:57;;;;;;;12.50;2.60;;;;;;;9.55;67.24;99393.14;2149043;81;21076;-76
2022/01/03 12:34:20;;;;;;;7.75;2.92;;;;;;;9.63;67.76;99399.70;2149331;81;21068;-73
2022/01/03 12:37:23;;;;;;;5.00;1.98;;;;;;;9.71;67.07;99396.13;2145071;81;21061;-73
2022/01/03 12:40:30;;;;;;;7.85;2.45;;;;;;;9.69;67.42;99401.63;2149942;81;20969;-73
2022/01/03 12:43:44;;;;;;;8.63;2.80;;;;;;;9.68;67.06;99413.71;2153757;81;20975;-73
2022/01/03 12:46:44;;;;;;;11.55;3.00;;;;;;;9.59;66.97;99403.18;2154825;81;20998;-73
2022/01/03 12:49:47;;;;;;;12.53;2.27;;;;;;;9.51;67.01;99407.72;2152163;81;21001;-73
2022/01/03 12:53:10;;;;;;;7.08;2.35;;;;;;;9.47;67.11;99413.87;2148081;81;20934;-74
2022/01/03 12:56:19;;;;;;;9.05;2.75;;;;;;;9.40;67.47;99416.41;2071175;84;21042;-72
2022/01/03 12:59:22;;;;;;;9.58;2.20;;;;;;;9.37;67.70;99427.84;2038463;85;21041;-73
2022/01/03 13:02:30;;;;;;;9.15;2.42;;;;;;;9.31;67.92;99424.06;2036890;85;21620;-77
2022/01/03 13:05:32;;;;;;;11.70;2.52;;;;;;;9.26;67.72;99414.50;2074775;84;21019;-78
2022/01/03 13:08:36;;;;;;;7.78;2.52;;;;;;;9.22;67.67;99420.34;2071022;84;21017;-75
2022/01/03 13:11:45;;;;;;;9.88;2.60;;;;;;;9.19;67.84;99413.56;2070073;84;21394;-80
2022/01/03 13:14:47;;;;;;;9.70;2.77;;;;;;;9.17;67.45;99419.52;2035868;85;21597;-74
2022/01/03 13:17:54;;;;;;;6.05;2.52;;;;;;;9.14;67.44;99416.73;2066071;85;21050;-72
2022/01/03 13:21:00;;;;;;;9.20;2.65;;;;;;;9.14;67.64;99422.52;2069154;84;21573;-73
2022/01/03 13:24:20;;;;;;;8.25;2.67;;;;;;;9.13;67.93;99432.80;2019764;86;21206;-73
2022/01/03 13:27:22;;;;;;;9.23;2.95;;;;;;;9.11;67.59;99426.84;2084406;84;21063;-74
2022/01/03 13:30:26;;;;;;;11.60;4.17;;;;;;;9.11;67.38;99426.34;2094606;84;20982;-73
2022/01/03 13:33:28;;;;;;;10.05;2.55;;;;;;;9.12;67.04;99426.69;2085888;84;21039;-72
2022/01/03 13:36:36;;;;;;;7.22;2.40;;;;;;;9.13;67.14;99428.83;2062338;84;20997;-72
2022/01/03 13:39:41;;;;;;;8.60;2.70;;;;;;;9.15;67.39;99441.36;2063484;85;20997;-73
2022/01/03 13:43:00;;;;;;;14.33;3.65;;;;;;;9.12;67.05;99437.27;2064077;85;21005;-72
2022/01/03 13:49:13;;;;;;;9.20;2.35;;;;;;;9.15;66.73;99433.42;2060787;84;21030;-76
2022/01/03 13:52:16;;;;;;;7.45;2.37;;;;;;;9.17;67.02;99442.84;2066975;84;21029;-76
2022/01/03 13:55:27;;;;;;;9.33;2.27;;;;;;;9.22;66.96;99436.22;2048663;84;21152;-73
2022/01/03 13:58:29;;;;;;;8.78;1.98;;;;;;;9.28;66.43;99439.48;2078236;84;21075;-73
2022/01/03 14:01:31;;;;;;;6.67;2.10;;;;;;;9.31;65.76;99429.87;2080182;84;21008;-74
2022/01/03 14:04:35;;;;;;;9.50;2.58;;;;;;;9.32;66.50;99439.45;2078777;83;20992;-72
2022/01/03 14:07:37;;;;;;;13.48;3.00;;;;;;;9.32;66.29;99445.59;2078757;84;21073;-72
2022/01/03 14:10:48;;;;;;;7.35;2.20;;;;;;;9.33;66.44;99443.26;2079938;84;20989;-72
2022/01/03 14:13:50;;;;;;;10.85;2.58;;;;;;;9.34;66.08;99441.42;2078862;84;21002;-73
2022/01/03 14:16:56;;;;;;;11.63;2.80;;;;;;;9.34;66.62;99454.66;2077242;84;21417;-79
2022/01/03 14:20:06;;;;;;;23.05;6.62;;;;;;;9.34;66.67;99455.98;2078550;84;21081;-72
2022/01/03 14:23:17;;;;;;;13.28;3.87;;;;;;;9.29;66.17;99448.59;2080527;84;20995;-72
2022/01/03 14:26:26;;;;;;;19.02;7.12;;;;;;;9.19;66.11;99447.47;2079992;84;21276;-76
2022/01/03 14:29:38;;;;;;;15.08;6.53;;;;;;;9.06;66.09;99454.33;2077054;84;21080;-72
2022/01/03 14:32:42;;;;;;;11.18;5.62;;;;;;;8.93;65.97;99446.45;2046381;84;20971;-72
2022/01/03 14:35:44;;;;;;;10.38;4.25;;;;;;;8.80;66.21;99447.49;2077518;84;21671;-72
2022/01/03 14:38:47;;;;;;;13.10;5.78;;;;;;;8.73;65.79;99453.16;2077071;84;21609;-72
2022/01/03 14:42:05;;;;;;;18.23;5.70;;;;;;;8.64;66.16;99458.95;2072412;84;21013;-80
2022/01/03 14:45:14;;;;;;;22.35;8.18;;;;;;;8.56;66.25;99455.50;2072548;84;21048;-73
2022/01/03 14:48:22;;;;;;;25.70;9.80;;;;;;;8.45;66.34;99454.07;2075216;84;21893;-73
2022/01/03 14:51:40;;;;;;;22.62;8.38;;;;;;;8.37;66.34;99455.38;2075359;84;21049;-73
2022/01/03 14:54:51;;;;;;;15.80;5.95;;;;;;;8.29;66.42;99448.28;2068797;84;21066;-74
2022/01/03 14:57:53;;;;;;;20.80;8.00;;;;;;;8.21;66.39;99453.58;2077611;84;21005;-73
2022/01/03 15:00:55;;;;;;;15.18;5.15;;;;;;;8.17;66.45;99450.95;2077360;84;21817;-74
2022/01/03 15:03:56;;;;;;;11.40;4.25;;;;;;;8.12;66.35;99450.13;2081067;84;21034;-73
2022/01/03 15:07:13;;;;;;;14.93;4.22;;;;;;;8.07;66.54;99449.29;2079543;84;21104;-75
2022/01/03 15:10:17;;;;;;;15.58;5.05;;;;;;;8.03;66.56;99446.67;2077973;84;21535;-73